Time;durP1;ratioP1;P1;durP2;ratioP2;P2;SDS_P1;SDS_P2;PMS_P1;PMS_P2;Temp;Humidity;BMP_temperature;BMP_pressure;BME280_temperature;BME280_humidity;BME280_pressure;Samples;Min_cycle;Max_cycle;Signal;HPM_P1;HPM_P2
2021/08/07 00:04:47;;;;;;;2.37;1.43;;;;;;;10.30;84.41;98538.41;531764;1090;117217;-67
2021/08/07 00:14:53;;;;;;;4.63;1.50;;;;;;;10.11;84.33;98557.41;526492;1088;115945;-68
2021/08/07 00:25:00;;;;;;;2.97;1.93;;;;;;;9.94;84.81;98550.86;532589;1089;117805;-68
2021/08/07 00:35:09;;;;;;;2.20;1.77;;;;;;;9.74;84.98;98557.66;517561;1088;116201;-67
2021/08/07 00:45:16;;;;;;;1.83;1.68;;;;;;;9.52;85.00;98562.77;532583;1089;116631;-69
2021/08/07 00:55:23;;;;;;;4.33;2.70;;;;;;;9.35;84.96;98566.67;532506;1089;117447;-68
2021/08/07 01:05:36;;;;;;;4.93;1.63;;;;;;;9.19;84.90;98561.75;517193;1088;116481;-69
2021/08/07 01:15:50;;;;;;;9.80;6.37;;;;;;;9.07;85.31;98567.91;532561;1090;115949;-67
2021/08/07 01:26:13;;;;;;;9.53;8.63;;;;;;;9.02;85.32;98570.86;531368;1090;115988;-68
2021/08/07 01:36:20;;;;;;;8.87;6.83;;;;;;;8.98;85.56;98572.02;532564;1090;116532;-70
2021/08/07 01:46:32;;;;;;;8.53;7.60;;;;;;;8.91;85.61;98568.20;532011;1089;116457;-67
2021/08/07 01:56:44;;;;;;;9.57;6.73;;;;;;;8.91;85.46;98569.02;532638;1089;116899;-68
2021/08/07 02:06:51;;;;;;;7.03;5.20;;;;;;;8.90;85.31;98567.36;532539;1090;117055;-69
2021/08/07 02:16:58;;;;;;;5.90;5.30;;;;;;;8.90;85.35;98551.65;531045;1089;117436;-68
2021/08/07 02:27:06;;;;;;;5.63;4.73;;;;;;;8.88;85.07;98550.93;532621;1089;116978;-69
2021/08/07 02:37:11;;;;;;;;;;;;;;;8.77;85.06;98562.20;532583;1089;116526;-69
2021/08/07 02:47:18;;;;;;;6.30;4.53;;;;;;;8.67;84.97;98571.67;532182;1089;102853;-69
2021/08/07 02:57:25;;;;;;;4.10;3.63;;;;;;;8.59;84.69;98572.20;532523;1089;116620;-70
2021/08/07 03:07:32;;;;;;;7.60;4.90;;;;;;;8.53;85.08;98576.09;530948;1089;115988;-70
2021/08/07 03:17:38;;;;;;;9.43;6.17;;;;;;;8.64;85.13;98572.72;532556;1089;117440;-69
2021/08/07 03:27:45;;;;;;;5.90;4.40;;;;;;;8.64;85.13;98583.19;532612;1088;115946;-69
2021/08/07 03:37:53;;;;;;;6.73;5.33;;;;;;;8.72;84.74;98581.81;530844;1090;116607;-69
2021/08/07 03:48:00;;;;;;;4.53;4.13;;;;;;;8.97;84.81;98588.68;532572;1088;115867;-68
2021/08/07 03:58:06;;;;;;;5.83;5.20;;;;;;;9.39;84.77;98590.84;532527;1090;115898;-69
2021/08/07 04:08:13;;;;;;;8.80;5.40;;;;;;;9.83;84.36;98580.55;521825;1089;116814;-69
2021/08/07 04:18:19;;;;;;;6.37;4.47;;;;;;;10.41;84.04;98590.09;532556;1088;116150;-70
2021/08/07 04:28:26;;;;;;;4.80;3.73;;;;;;;11.98;85.08;98576.39;531463;1089;117510;-68
2021/08/07 04:38:32;;;;;;;7.83;3.90;;;;;;;13.03;80.67;98588.27;531654;1088;177290;-71
2021/08/07 04:48:39;;;;;;;5.67;4.27;;;;;;;13.05;79.95;98577.59;531661;1089;116798;-70
2021/08/07 04:58:45;;;;;;;7.03;4.23;;;;;;;13.64;80.04;98588.09;530296;1088;117494;-70
2021/08/07 05:08:52;;;;;;;3.93;3.57;;;;;;;20.07;79.17;98574.50;531506;1090;117081;-67
2021/08/07 05:18:58;;;;;;;9.33;3.30;;;;;;;28.22;66.70;98581.80;531725;1089;116415;-71
2021/08/07 05:29:04;;;;;;;6.47;3.40;;;;;;;33.48;57.03;98573.75;531001;1089;116067;-73
2021/08/07 05:39:11;;;;;;;6.78;2.60;;;;;;;37.76;50.60;98575.38;531787;1088;117438;-71
2021/08/07 05:49:17;;;;;;;3.00;2.70;;;;;;;40.77;43.09;98574.08;532047;1089;117305;-72
2021/08/07 05:59:24;;;;;;;4.30;2.63;;;;;;;43.18;39.08;98574.82;531068;1089;116152;-72
2021/08/07 06:09:30;;;;;;;3.95;2.15;;;;;;;45.21;33.79;98580.12;532528;1089;116523;-71
2021/08/07 06:19:37;;;;;;;2.40;2.20;;;;;;;46.76;31.74;98579.27;531727;1088;117846;-73
2021/08/07 06:29:43;;;;;;;2.58;2.40;;;;;;;47.74;28.64;98582.98;532533;1088;116371;-71
2021/08/07 06:39:50;;;;;;;5.55;2.88;;;;;;;49.60;26.13;98581.13;532313;1088;116257;-72
2021/08/07 06:49:56;;;;;;;2.58;2.40;;;;;;;48.33;24.91;98580.61;531711;1088;117089;-71
2021/08/07 07:00:04;;;;;;;8.05;3.80;;;;;;;49.03;23.16;98598.91;531416;1089;116409;-71
2021/08/07 07:10:11;;;;;;;;;;;;;;;49.02;21.41;98602.89;532318;1088;116274;-71
2021/08/07 07:20:18;;;;;;;4.27;3.57;;;;;;;48.51;21.18;98605.11;532018;1089;104110;-66
2021/08/07 07:30:24;;;;;;;3.95;3.75;;;;;;;49.97;20.85;98615.66;532491;1089;116454;-67
2021/08/07 07:40:35;;;;;;;4.43;4.18;;;;;;;50.59;20.03;98628.72;521861;1089;10113367;-66
2021/08/07 07:50:41;;;;;;;4.97;4.73;;;;;;;52.95;18.71;98622.91;532060;1089;158713;-65
2021/08/07 08:00:48;;;;;;;6.40;6.10;;;;;;;52.36;18.44;98631.97;532434;1089;116689;-65
2021/08/07 08:11:49;;;;;;;4.43;4.03;;;;;;;51.47;18.31;98634.50;529657;1088;117283;-65
2021/08/07 08:21:56;;;;;;;3.98;1.60;;;;;;;41.92;20.74;98634.34;532116;1089;116753;-65
2021/08/07 08:32:04;;;;;;;2.98;2.28;;;;;;;36.29;25.23;98640.85;527337;1089;116992;-65
2021/08/07 08:42:10;;;;;;;3.03;2.00;;;;;;;34.06;28.57;98643.30;514276;1089;116885;-65
2021/08/07 08:52:18;;;;;;;3.88;2.20;;;;;;;32.48;30.76;98651.89;530307;1088;116381;-64
2021/08/07 09:02:24;;;;;;;3.27;2.60;;;;;;;30.80;32.71;98661.77;530932;1089;116748;-65
2021/08/07 09:12:48;;;;;;;3.20;2.40;;;;;;;29.71;34.70;98660.34;531480;1089;116257;-65
2021/08/07 09:22:55;;;;;;;2.57;1.70;;;;;;;29.02;36.57;98664.03;530937;1090;116827;-65
2021/08/07 09:33:04;;;;;;;3.03;1.87;;;;;;;28.76;36.91;98674.34;532544;1089;115796;-68
2021/08/07 09:43:12;;;;;;;1.80;1.70;;;;;;;28.69;37.10;98671.78;532533;1088;116799;-67
2021/08/07 09:53:27;;;;;;;2.30;1.83;;;;;;;28.06;38.24;98672.35;531821;1089;117827;-68
2021/08/07 10:03:34;;;;;;;5.80;1.40;;;;;;;27.92;38.28;98685.25;526975;1090;116336;-68
2021/08/07 10:13:42;;;;;;;2.30;1.10;;;;;;;27.60;39.11;98677.48;531733;1089;116077;-65
2021/08/07 10:24:02;;;;;;;1.70;1.03;;;;;;;27.08;38.91;98678.05;530812;1089;116402;-67
2021/08/07 10:34:10;;;;;;;2.37;0.93;;;;;;;27.02;39.53;98677.09;532505;1090;117299;-67
2021/08/07 10:44:15;;;;;;;;;;;;;;;26.89;40.33;98680.77;531892;1089;116631;-66
2021/08/07 10:54:36;;;;;;;1.07;0.93;;;;;;;26.54;41.00;98671.47;532784;1089;102659;-67
2021/08/07 11:04:52;;;;;;;4.07;1.93;;;;;;;26.24;41.12;98664.14;531725;1089;117178;-68
2021/08/07 11:15:12;;;;;;;1.33;1.23;;;;;;;26.02;41.00;98661.04;532542;1088;117609;-67
2021/08/07 11:25:21;;;;;;;2.07;0.80;;;;;;;26.03;41.02;98660.00;532527;1089;115875;-66
2021/08/07 11:36:05;;;;;;;1.77;0.90;;;;;;;26.09;41.37;98660.97;531545;1088;116578;-67
2021/08/07 11:46:13;;;;;;;1.30;0.73;;;;;;;26.25;41.18;98668.47;532555;1089;165633;-67
2021/08/07 11:56:21;;;;;;;1.27;0.90;;;;;;;26.31;40.29;98669.44;531787;1089;116723;-66
2021/08/07 12:06:31;;;;;;;1.50;1.40;;;;;;;26.50;40.98;98670.28;532612;1088;116376;-66
2021/08/07 12:16:41;;;;;;;1.43;1.33;;;;;;;26.84;40.63;98678.77;531767;1089;116860;-66
2021/08/07 12:26:49;;;;;;;2.37;1.37;;;;;;;26.97;40.56;98675.08;532563;1088;116937;-67
2021/08/07 12:37:02;;;;;;;1.30;1.20;;;;;;;26.77;39.77;98658.33;518858;1090;116327;-65
2021/08/07 12:47:09;;;;;;;1.37;1.10;;;;;;;26.62;41.11;98647.99;530374;1088;116443;-67
2021/08/07 12:57:23;;;;;;;1.03;0.97;;;;;;;26.62;40.68;98651.48;532020;1089;116636;-66
2021/08/07 13:07:32;;;;;;;1.67;1.10;;;;;;;27.00;40.05;98665.73;530753;1090;117267;-66
2021/08/07 13:17:41;;;;;;;2.13;1.40;;;;;;;26.69;40.18;98659.48;528937;1089;117138;-67
2021/08/07 13:27:49;;;;;;;2.03;1.00;;;;;;;26.58;39.92;98679.92;531333;1089;116614;-67
2021/08/07 13:37:56;;;;;;;2.53;1.13;;;;;;;26.62;40.62;98667.64;531757;1089;117756;-66
2021/08/07 13:48:03;;;;;;;0.75;0.75;;;;;;;26.23;40.47;98651.73;532507;1089;116944;-66
2021/08/07 13:58:10;;;;;;;1.93;1.37;;;;;;;26.13;40.42;98660.30;532517;1089;116481;-67
2021/08/07 14:08:17;;;;;;;3.47;0.93;;;;;;;26.15;40.55;98657.41;531681;1089;117386;-69
2021/08/07 14:18:23;;;;;;;2.83;2.60;;;;;;;26.03;39.53;98657.30;529435;1089;116743;-66
2021/08/07 14:28:30;;;;;;;1.70;1.17;;;;;;;25.83;39.73;98660.20;526584;1090;116562;-66
2021/08/07 14:38:36;;;;;;;1.37;1.10;;;;;;;25.81;39.94;98659.60;532454;1089;116328;-66
2021/08/07 14:48:43;;;;;;;0.87;0.80;;;;;;;25.78;39.27;98625.91;532527;1089;116609;-66
2021/08/07 14:58:49;;;;;;;1.67;1.00;;;;;;;25.37;39.45;98632.63;531781;1089;116158;-65
2021/08/07 15:08:56;;;;;;;1.60;0.90;;;;;;;25.67;39.56;98621.26;528108;1089;115974;-64
2021/08/07 15:19:03;;;;;;;1.80;0.60;;;;;;;25.64;39.35;98645.90;529016;1089;116279;-66
2021/08/07 15:29:09;;;;;;;3.50;1.50;;;;;;;25.49;40.53;98646.19;525893;1088;116595;-67
2021/08/07 15:39:17;;;;;;;0.78;0.78;;;;;;;25.52;39.86;98649.30;532527;1089;116278;-67
2021/08/07 15:49:23;;;;;;;1.18;1.08;;;;;;;25.32;41.10;98668.20;530416;1089;116832;-66
2021/08/07 15:59:30;;;;;;;2.50;1.43;;;;;;;25.18;41.00;98659.44;521831;1088;117205;-66
2021/08/07 16:09:37;;;;;;;1.67;1.00;;;;;;;25.14;40.61;98650.16;532277;1088;117399;-66
2021/08/07 16:19:44;;;;;;;2.37;1.30;;;;;;;25.28;40.90;98643.67;531829;1089;117361;-66
2021/08/07 16:29:53;;;;;;;1.85;1.48;;;;;;;25.16;41.14;98648.06;514666;1088;20002099;-68
2021/08/07 16:40:00;;;;;;;3.97;2.10;;;;;;;25.03;41.22;98635.57;532430;1089;116898;-67
2021/08/07 16:50:08;;;;;;;3.80;1.53;;;;;;;24.59;41.83;98643.42;531703;1088;116812;-72
2021/08/07 17:00:15;;;;;;;3.50;2.00;;;;;;;24.08;43.83;98661.13;528117;1089;116371;-71
2021/08/07 17:10:22;;;;;;;5.73;1.85;;;;;;;23.52;44.99;98661.33;532050;1090;116231;-73
2021/08/07 17:20:29;;;;;;;4.57;2.43;;;;;;;23.03;46.03;98672.16;532324;1088;117450;-69
2021/08/07 17:30:38;;;;;;;4.10;2.47;;;;;;;22.73;47.07;98675.14;532486;1088;116235;-70
2021/08/07 17:40:44;;;;;;;7.93;5.37;;;;;;;22.43;47.92;98670.06;528440;1089;116401;-73
2021/08/07 17:50:51;;;;;;;7.15;3.85;;;;;;;22.09;48.43;98685.91;520032;1088;117309;-72
2021/08/07 18:00:58;;;;;;;5.57;4.97;;;;;;;21.72;49.31;98684.42;532245;1088;115996;-71
2021/08/07 18:11:05;;;;;;;10.73;5.73;;;;;;;21.28;51.50;98689.75;531508;1089;118709;-70
2021/08/07 18:21:12;;;;;;;10.85;6.00;;;;;;;20.75;52.92;98687.30;526522;1089;116337;-71
2021/08/07 18:31:19;;;;;;;11.25;6.20;;;;;;;20.24;55.31;98700.38;531319;1089;117403;-70
2021/08/07 18:41:26;;;;;;;10.10;6.18;;;;;;;19.77;56.75;98712.95;531723;1089;116361;-70
2021/08/07 18:51:33;;;;;;;8.87;7.10;;;;;;;19.44;57.21;98721.19;530686;1088;116495;-71
2021/08/07 19:01:41;;;;;;;10.45;6.20;;;;;;;19.21;58.43;98711.36;517430;1089;116258;-71
2021/08/07 19:11:48;;;;;;;13.43;8.07;;;;;;;18.93;59.48;98701.19;516463;1090;116439;-72
2021/08/07 19:21:55;;;;;;;7.37;6.63;;;;;;;18.58;59.43;98706.00;514908;1090;116743;-73
2021/08/07 19:32:02;;;;;;;12.53;9.50;;;;;;;18.25;60.31;98706.95;530490;1088;117425;-70
2021/08/07 19:42:09;;;;;;;17.30;13.17;;;;;;;17.98;61.22;98708.94;530670;1088;116646;-71
2021/08/07 19:52:16;;;;;;;11.70;10.27;;;;;;;17.87;60.53;98712.78;516035;1089;116347;-69
2021/08/07 20:02:26;;;;;;;6.85;6.05;;;;;;;17.87;60.48;98703.97;521219;1090;116606;-72
2021/08/07 20:12:33;;;;;;;7.67;5.90;;;;;;;17.91;60.17;98702.66;530746;1088;116736;-71
2021/08/07 20:22:40;;;;;;;17.43;12.37;;;;;;;17.77;61.04;98706.81;531422;1090;116140;-71
2021/08/07 20:32:47;;;;;;;13.30;11.90;;;;;;;17.53;62.56;98713.78;521043;1089;117046;-70
2021/08/07 20:42:55;;;;;;;13.08;9.98;;;;;;;17.35;63.37;98709.44;524269;1088;116390;-70
2021/08/07 20:53:02;;;;;;;10.53;7.90;;;;;;;17.26;63.38;98694.52;524484;1088;117236;-71
2021/08/07 21:03:09;;;;;;;11.80;10.73;;;;;;;17.30;62.89;98684.39;528591;1089;116963;-71
2021/08/07 21:13:17;;;;;;;6.43;5.60;;;;;;;17.39;62.76;98674.64;531764;1090;116845;-69
2021/08/07 21:23:23;;;;;;;7.00;6.30;;;;;;;17.61;62.23;98681.94;531652;1089;116845;-75
2021/08/07 21:33:30;;;;;;;8.97;7.00;;;;;;;17.68;62.32;98682.09;529823;1089;116370;-72
2021/08/07 21:43:38;;;;;;;8.43;7.63;;;;;;;17.74;62.33;98680.60;518200;1089;116802;-72
2021/08/07 21:53:44;;;;;;;8.40;7.50;;;;;;;17.68;62.73;98679.45;527654;1089;116686;-72
2021/08/07 22:03:52;;;;;;;7.33;6.33;;;;;;;17.69;62.68;98665.17;532527;1089;117024;-72
2021/08/07 22:13:58;;;;;;;6.03;5.43;;;;;;;17.56;63.25;98676.28;522137;1090;117447;-71
2021/08/07 22:24:07;;;;;;;6.67;5.90;;;;;;;17.60;63.67;98668.82;517366;1088;115917;-73
2021/08/07 22:34:11;;;;;;;;;;;;;;;17.51;63.62;98660.04;524354;1088;116474;-71
2021/08/07 22:45:07;;;;;;;6.03;5.50;;;;;;;17.44;63.79;98670.49;527146;1089;102878;-72
2021/08/07 22:55:15;;;;;;;9.50;5.70;;;;;;;17.49;63.87;98652.23;525004;1090;116300;-72
2021/08/07 23:05:22;;;;;;;4.83;4.43;;;;;;;17.61;63.76;98642.13;524537;1090;116499;-71
2021/08/07 23:15:28;;;;;;;9.83;4.73;;;;;;;17.82;63.67;98632.78;521546;1088;116740;-71
2021/08/07 23:25:35;;;;;;;4.97;4.03;;;;;;;17.93;63.19;98623.64;517491;1089;117692;-73
2021/08/07 23:35:42;;;;;;;5.00;4.00;;;;;;;17.97;63.58;98611.67;514301;1089;116097;-71
2021/08/07 23:45:48;;;;;;;9.40;4.73;;;;;;;18.03;63.14;98603.06;513154;1089;115811;-70
2021/08/07 23:55:55;;;;;;;4.77;4.27;;;;;;;18.06;63.07;98580.63;513601;1089;117316;-71
